Time;durP1;ratioP1;P1;durP2;ratioP2;P2;SDS_P1;SDS_P2;PMS_P1;PMS_P2;Temp;Humidity;BMP_temperature;BMP_pressure;BME280_temperature;BME280_humidity;BME280_pressure;Samples;Min_cycle;Max_cycle;Signal;HPM_P1;HPM_P2
2023/03/07 00:01:07;;;;;;;48.13;29.85;;;;;;;2.29;79.48;99571.03;7392671;19;20028;-55
2023/03/07 00:03:33;;;;;;;51.17;30.67;;;;;;;2.24;79.81;99564.44;7393214;19;20003;-55
2023/03/07 00:06:10;;;;;;;47.05;28.48;;;;;;;2.27;79.78;99567.66;7391918;19;20022;-53
2023/03/07 00:08:36;;;;;;;46.95;29.35;;;;;;;2.42;79.96;99557.94;7392781;19;20010;-53
2023/03/07 00:11:04;;;;;;;50.90;30.50;;;;;;;2.38;79.84;99548.59;7392866;19;20010;-55
2023/03/07 00:13:32;;;;;;;49.83;30.00;;;;;;;2.35;79.98;99552.28;7392110;19;20003;-51
2023/03/07 00:16:09;;;;;;;46.90;29.95;;;;;;;2.26;80.31;99542.41;7389748;19;20018;-55
2023/03/07 00:18:35;;;;;;;48.55;29.75;;;;;;;2.27;80.92;99538.00;7392361;19;20006;-52
2023/03/07 00:21:06;;;;;;;47.80;29.40;;;;;;;2.29;80.68;99536.97;7392758;19;20006;-53
2023/03/07 00:23:36;;;;;;;45.78;27.88;;;;;;;2.30;80.40;99536.00;7392852;19;20070;-53
2023/03/07 00:26:06;;;;;;;47.28;29.38;;;;;;;2.29;80.67;99533.50;7389222;19;20013;-51
2023/03/07 00:28:32;;;;;;;43.67;27.20;;;;;;;2.32;80.87;99530.69;7392613;19;20672;-50
2023/03/07 00:30:59;;;;;;;45.60;28.50;;;;;;;2.45;80.19;99534.13;7392076;19;19998;-53
2023/03/07 00:33:25;;;;;;;44.53;27.45;;;;;;;2.50;79.08;99515.47;7391845;19;20106;-53
2023/03/07 00:36:02;;;;;;;45.35;28.35;;;;;;;2.39;80.05;99531.94;7388281;19;19998;-53
2023/03/07 00:38:29;;;;;;;44.67;26.42;;;;;;;2.38;79.91;99515.38;7389534;19;20536;-56
2023/03/07 00:41:00;;;;;;;42.63;26.30;;;;;;;2.38;80.22;99520.59;7390639;19;19998;-55
2023/03/07 00:43:27;;;;;;;45.10;26.23;;;;;;;2.38;79.91;99511.91;7389357;19;20494;-55
2023/03/07 00:45:53;;;;;;;42.30;25.52;;;;;;;2.31;80.04;99523.75;7391513;19;20017;-54
2023/03/07 00:48:18;;;;;;;38.13;24.33;;;;;;;2.32;80.25;99510.56;7391388;19;20003;-54
2023/03/07 00:50:44;;;;;;;39.40;24.42;;;;;;;2.26;80.15;99508.34;7392577;19;20028;-54
2023/03/07 00:53:09;;;;;;;36.78;22.77;;;;;;;2.31;80.45;99502.78;7391385;19;20026;-53
2023/03/07 00:55:35;;;;;;;35.28;22.67;;;;;;;2.35;79.87;99492.00;7389206;19;19991;-53
2023/03/07 00:58:00;;;;;;;39.10;24.02;;;;;;;2.38;79.70;99498.81;7389734;19;20533;-54
2023/03/07 01:00:26;;;;;;;37.78;23.85;;;;;;;2.38;79.92;99498.81;7392140;19;19990;-54
2023/03/07 01:02:51;;;;;;;36.63;23.02;;;;;;;2.28;80.06;99492.53;7389462;19;20014;-55
2023/03/07 01:05:17;;;;;;;36.60;22.20;;;;;;;2.28;79.94;99493.38;7389196;19;19995;-55
2023/03/07 01:07:42;;;;;;;35.78;22.25;;;;;;;2.21;80.38;99488.66;7389738;19;19994;-55
2023/03/07 01:10:08;;;;;;;34.00;22.13;;;;;;;2.26;80.65;99476.06;7388984;19;19998;-54
2023/03/07 01:12:34;;;;;;;33.85;21.75;;;;;;;2.31;80.08;99471.34;7390673;19;19998;-55
2023/03/07 01:14:59;;;;;;;34.00;21.25;;;;;;;2.32;80.08;99473.03;7386404;19;20013;-56
2023/03/07 01:17:25;;;;;;;33.47;20.23;;;;;;;2.35;80.17;99475.41;7387773;19;19998;-55
2023/03/07 01:19:50;;;;;;;35.17;20.67;;;;;;;2.34;80.40;99469.34;7388593;19;20058;-54
2023/03/07 01:22:16;;;;;;;34.88;20.85;;;;;;;2.33;79.99;99469.47;7390925;19;19998;-56
2023/03/07 01:24:41;;;;;;;33.67;20.02;;;;;;;2.20;80.54;99463.38;7389645;19;20031;-56
2023/03/07 01:27:06;;;;;;;31.98;18.98;;;;;;;2.24;80.53;99457.84;7389648;19;20459;-56
2023/03/07 01:29:32;;;;;;;31.77;19.90;;;;;;;2.29;80.53;99458.34;7390133;19;20002;-57
2023/03/07 01:31:57;;;;;;;31.92;19.75;;;;;;;2.34;80.54;99450.16;7390934;19;19999;-57
2023/03/07 01:34:23;;;;;;;32.80;19.27;;;;;;;2.31;80.88;99443.38;7387681;19;19987;-58
2023/03/07 01:36:48;;;;;;;30.20;18.30;;;;;;;2.28;80.79;99438.34;7388331;19;20030;-57
2023/03/07 01:39:16;;;;;;;28.08;16.13;;;;;;;2.27;81.19;99441.88;7388610;19;20035;-56
2023/03/07 01:41:42;;;;;;;27.77;16.50;;;;;;;2.27;80.96;99444.50;7390977;19;19998;-54
2023/03/07 01:44:20;;;;;;;25.20;15.40;;;;;;;2.37;80.34;99439.47;7390833;19;20003;-53
2023/03/07 01:46:48;;;;;;;24.00;14.48;;;;;;;2.43;80.20;99432.97;7388363;19;20473;-55
2023/03/07 01:49:14;;;;;;;23.10;14.38;;;;;;;2.49;80.23;99429.91;7389535;19;20467;-55
2023/03/07 01:51:43;;;;;;;23.35;13.55;;;;;;;2.42;80.20;99429.50;7389793;19;20086;-55
2023/03/07 01:54:12;;;;;;;20.35;12.32;;;;;;;2.38;80.24;99426.25;7388946;19;20030;-55
2023/03/07 01:56:38;;;;;;;21.20;12.77;;;;;;;2.45;80.36;99423.22;7387884;19;20017;-57
2023/03/07 01:59:05;;;;;;;20.52;12.30;;;;;;;2.45;80.85;99417.97;7387013;19;20018;-56
2023/03/07 02:01:32;;;;;;;22.27;12.85;;;;;;;2.48;80.86;99415.16;7386260;19;20048;-56
2023/03/07 02:04:05;;;;;;;21.85;13.23;;;;;;;2.42;81.03;99412.94;7389940;19;20023;-55
2023/03/07 02:06:34;;;;;;;21.35;12.73;;;;;;;2.47;81.11;99418.72;7387377;19;20002;-55
2023/03/07 02:09:01;;;;;;;22.73;13.95;;;;;;;2.44;81.50;99414.53;7387026;19;19998;-56
2023/03/07 02:11:27;;;;;;;21.70;13.50;;;;;;;2.43;81.47;99415.47;7389697;19;20006;-55
2023/03/07 02:13:52;;;;;;;20.58;13.48;;;;;;;2.46;81.52;99409.16;7389723;19;19995;-56
2023/03/07 02:16:18;;;;;;;19.40;12.57;;;;;;;2.53;81.18;99397.31;7388079;19;20006;-55
2023/03/07 02:18:48;;;;;;;20.00;12.45;;;;;;;2.55;81.08;99405.91;7389026;19;20069;-56
2023/03/07 02:21:42;;;;;;;19.00;11.88;;;;;;;2.58;81.27;99400.47;7389362;19;20094;-55
2023/03/07 02:24:25;;;;;;;18.25;11.05;;;;;;;2.53;81.22;99394.69;7394725;19;19995;-56
2023/03/07 02:26:52;;;;;;;17.05;10.27;;;;;;;2.55;81.68;99384.94;7394748;19;20029;-56
2023/03/07 02:29:18;;;;;;;16.77;9.88;;;;;;;2.59;81.35;99382.00;7395416;19;19994;-57
2023/03/07 02:31:43;;;;;;;15.73;8.35;;;;;;;2.66;80.75;99378.94;7395881;19;20006;-55
2023/03/07 02:34:23;;;;;;;13.40;7.63;;;;;;;2.70;80.25;99372.53;7395630;19;20002;-56
2023/03/07 02:36:57;;;;;;;12.35;6.90;;;;;;;2.69;80.34;99371.66;7394093;19;20503;-56
2023/03/07 02:39:28;;;;;;;14.65;6.90;;;;;;;2.70;80.81;99364.66;7396021;19;20010;-56
2023/03/07 02:41:57;;;;;;;11.27;6.20;;;;;;;2.69;80.00;99361.19;7395647;19;20327;-56
2023/03/07 02:44:22;;;;;;;13.43;6.32;;;;;;;2.75;79.88;99357.28;7393297;19;19999;-56
2023/03/07 02:46:48;;;;;;;12.00;5.63;;;;;;;2.68;79.73;99354.25;7394083;19;20343;-56
2023/03/07 02:49:13;;;;;;;11.60;6.00;;;;;;;2.61;80.50;99353.84;7395190;19;19991;-56
2023/03/07 02:51:39;;;;;;;13.45;6.97;;;;;;;2.58;80.29;99358.50;7395235;19;20008;-57
2023/03/07 02:54:04;;;;;;;16.20;8.48;;;;;;;2.64;80.51;99352.81;7394753;19;19991;-57
2023/03/07 02:56:30;;;;;;;15.73;7.43;;;;;;;2.70;80.17;99359.41;7393175;19;20455;-57
2023/03/07 02:58:55;;;;;;;11.05;5.50;;;;;;;2.61;80.13;99366.13;7393410;19;20002;-56
2023/03/07 03:01:21;;;;;;;10.85;5.07;;;;;;;2.61;80.53;99353.84;7395219;19;20003;-57
2023/03/07 03:03:47;;;;;;;11.85;4.78;;;;;;;2.68;79.82;99353.44;7394947;19;19995;-57
2023/03/07 03:06:12;;;;;;;9.60;4.63;;;;;;;2.69;79.67;99352.47;7391298;19;20399;-56
2023/03/07 03:08:38;;;;;;;12.10;4.43;;;;;;;2.74;79.27;99348.59;7394768;19;19999;-57
2023/03/07 03:11:03;;;;;;;9.00;4.22;;;;;;;2.64;79.33;99347.56;7392792;19;19998;-57
2023/03/07 03:13:29;;;;;;;9.45;4.18;;;;;;;2.66;79.41;99342.22;7392878;19;20447;-57
2023/03/07 03:15:56;;;;;;;10.27;4.30;;;;;;;2.67;79.26;99333.41;7391593;19;20098;-57
2023/03/07 03:18:22;;;;;;;8.30;4.20;;;;;;;2.60;79.71;99340.88;7394696;19;20328;-57
2023/03/07 03:20:48;;;;;;;8.02;4.20;;;;;;;2.61;79.56;99334.69;7395174;19;20323;-57
2023/03/07 03:23:13;;;;;;;9.57;4.38;;;;;;;2.60;79.61;99341.72;7394045;19;20339;-58
2023/03/07 03:25:39;;;;;;;9.45;4.00;;;;;;;2.45;80.00;99339.34;7393314;19;19991;-56
2023/03/07 03:28:04;;;;;;;8.73;3.60;;;;;;;2.37;80.37;99343.34;7392057;19;20001;-56
2023/03/07 03:30:31;;;;;;;9.80;3.63;;;;;;;2.45;79.91;99336.72;7392015;19;20006;-57
2023/03/07 03:32:57;;;;;;;10.93;3.35;;;;;;;2.47;79.74;99332.22;7394431;19;19999;-55
2023/03/07 03:35:22;;;;;;;8.52;3.58;;;;;;;2.47;79.47;99333.06;7391722;19;19999;-56
2023/03/07 03:37:48;;;;;;;7.47;3.13;;;;;;;2.47;79.62;99335.69;7391619;19;20415;-57
2023/03/07 03:40:16;;;;;;;9.18;3.28;;;;;;;2.52;79.38;99344.03;7393816;19;20051;-56
2023/03/07 03:42:42;;;;;;;11.15;3.33;;;;;;;2.36;80.04;99338.22;7393522;19;20037;-56
2023/03/07 03:45:09;;;;;;;7.53;3.38;;;;;;;2.35;79.99;99345.25;7393363;19;20032;-57
2023/03/07 03:47:34;;;;;;;7.57;3.20;;;;;;;2.32;80.26;99336.78;7392397;19;19999;-57
2023/03/07 03:50:00;;;;;;;8.73;3.10;;;;;;;2.32;79.61;99342.84;7394279;19;20094;-56
2023/03/07 03:52:25;;;;;;;9.23;3.20;;;;;;;2.35;79.65;99320.81;7391828;19;20354;-56
2023/03/07 03:54:51;;;;;;;8.65;3.05;;;;;;;2.31;79.41;99329.84;7392020;19;20375;-55
2023/03/07 03:57:19;;;;;;;7.50;2.92;;;;;;;2.26;79.81;99330.16;7392094;19;20467;-56
2023/03/07 03:59:45;;;;;;;7.53;3.33;;;;;;;2.30;79.84;99325.56;7393979;19;20006;-53
2023/03/07 04:02:11;;;;;;;9.80;2.83;;;;;;;2.34;79.48;99324.38;7393169;19;20023;-58
2023/03/07 04:04:37;;;;;;;8.38;2.60;;;;;;;2.40;79.20;99327.41;7392679;19;19998;-56
2023/03/07 04:07:03;;;;;;;11.80;3.35;;;;;;;2.28;79.42;99317.81;7391864;19;20477;-57
2023/03/07 04:09:30;;;;;;;7.05;2.65;;;;;;;2.24;79.61;99310.28;7393200;19;20037;-55
2023/03/07 04:11:55;;;;;;;8.55;3.13;;;;;;;2.25;79.67;99323.25;7392429;19;20074;-56
2023/03/07 04:14:21;;;;;;;9.75;3.25;;;;;;;2.29;79.51;99310.78;7392163;19;20483;-56
2023/03/07 04:16:46;;;;;;;7.57;2.95;;;;;;;2.29;79.19;99310.78;7392057;19;20122;-54
2023/03/07 04:19:12;;;;;;;10.75;3.20;;;;;;;2.21;79.34;99313.94;7391982;19;20006;-59
2023/03/07 04:21:39;;;;;;;11.05;3.50;;;;;;;2.21;79.35;99313.13;7392486;19;20002;-56
2023/03/07 04:24:06;;;;;;;8.38;2.80;;;;;;;2.20;78.99;99311.41;7392301;19;20014;-55
2023/03/07 04:26:32;;;;;;;10.48;2.88;;;;;;;2.30;78.16;99302.81;7391225;19;20002;-55
2023/03/07 04:28:57;;;;;;;9.45;2.65;;;;;;;2.36;78.21;99306.78;7392107;19;20368;-58
2023/03/07 04:31:25;;;;;;;10.13;2.95;;;;;;;2.36;78.12;99312.84;7390356;19;20521;-57
2023/03/07 04:33:52;;;;;;;9.00;2.42;;;;;;;2.44;77.33;99298.38;7390682;19;20026;-57
2023/03/07 04:36:18;;;;;;;9.20;2.30;;;;;;;2.30;77.32;99307.22;7388729;19;20364;-56
2023/03/07 04:38:46;;;;;;;11.13;2.30;;;;;;;2.25;78.03;99302.31;7388466;19;20058;-56
2023/03/07 04:41:20;;;;;;;7.53;2.22;;;;;;;2.36;77.18;99304.16;7391925;19;20003;-56
2023/03/07 04:43:46;;;;;;;8.55;2.25;;;;;;;2.42;77.20;99292.38;7392005;19;20115;-56
2023/03/07 04:46:14;;;;;;;8.55;2.10;;;;;;;2.33;77.11;99292.09;7389953;19;20031;-56
2023/03/07 04:48:40;;;;;;;7.75;2.05;;;;;;;2.31;77.30;99287.91;7389744;19;20006;-55
2023/03/07 04:51:05;;;;;;;10.00;2.38;;;;;;;2.28;77.36;99291.59;7391381;19;19998;-56
2023/03/07 04:53:31;;;;;;;8.98;2.10;;;;;;;2.34;77.27;99295.56;7391513;19;20066;-56
2023/03/07 04:55:58;;;;;;;9.70;2.53;;;;;;;2.29;77.18;99293.28;7388559;19;19998;-55
2023/03/07 04:58:25;;;;;;;7.93;2.33;;;;;;;2.26;77.02;99303.97;7391488;19;20029;-56
2023/03/07 05:00:50;;;;;;;8.30;1.90;;;;;;;2.28;77.08;99288.16;7390763;19;20026;-56
2023/03/07 05:03:17;;;;;;;7.38;2.05;;;;;;;2.17;77.75;99291.53;7391333;19;19998;-56
2023/03/07 05:05:49;;;;;;;7.32;2.30;;;;;;;2.17;77.63;99301.19;7390776;19;20002;-56
2023/03/07 05:08:14;;;;;;;9.23;2.63;;;;;;;2.12;78.12;99296.25;7389649;19;20014;-57
2023/03/07 05:10:40;;;;;;;8.98;2.20;;;;;;;2.08;77.79;99295.66;7390958;19;20532;-54
2023/03/07 05:13:13;;;;;;;12.93;2.28;;;;;;;2.22;77.37;99293.81;7390501;19;20066;-55
2023/03/07 05:15:39;;;;;;;13.43;2.20;;;;;;;2.26;77.19;99288.25;7388828;19;20019;-56
2023/03/07 05:18:05;;;;;;;10.45;2.00;;;;;;;2.18;77.56;99287.97;7389194;19;20525;-56
2023/03/07 05:20:32;;;;;;;7.70;1.92;;;;;;;2.20;77.31;99291.31;7391634;19;20010;-56
2023/03/07 05:22:58;;;;;;;8.75;1.60;;;;;;;2.22;77.10;99278.94;7390467;19;19999;-54
2023/03/07 05:25:23;;;;;;;10.48;2.00;;;;;;;2.25;76.63;99291.00;7389673;19;20014;-55
2023/03/07 05:27:49;;;;;;;10.20;1.75;;;;;;;2.16;77.13;99284.63;7389085;19;19995;-56
2023/03/07 05:30:15;;;;;;;9.90;1.65;;;;;;;2.21;76.86;99292.16;7391091;19;20006;-56
2023/03/07 05:32:41;;;;;;;11.48;2.03;;;;;;;2.14;76.43;99294.38;7390150;19;20009;-56
2023/03/07 05:35:09;;;;;;;9.13;1.83;;;;;;;2.11;76.76;99284.94;7388330;19;20428;-57
2023/03/07 05:37:35;;;;;;;12.70;2.20;;;;;;;2.10;76.22;99290.28;7383711;19;20010;-59
2023/03/07 05:40:00;;;;;;;11.27;1.88;;;;;;;2.15;75.18;99294.25;7390216;19;19999;-57
2023/03/07 05:42:26;;;;;;;9.07;2.00;;;;;;;2.19;74.96;99273.06;7388159;19;20006;-58
2023/03/07 05:44:51;;;;;;;10.27;1.80;;;;;;;2.22;74.78;99281.56;7387617;19;20394;-58
2023/03/07 05:47:17;;;;;;;12.63;1.90;;;;;;;2.14;74.56;99294.38;7389727;19;20029;-57
2023/03/07 05:49:42;;;;;;;7.57;1.85;;;;;;;2.25;73.83;99286.59;7389680;19;20343;-57
2023/03/07 05:52:08;;;;;;;12.07;1.40;;;;;;;2.19;73.60;99292.25;7388285;19;20123;-58
2023/03/07 05:54:33;;;;;;;11.85;1.88;;;;;;;2.20;73.79;99279.97;7388557;19;19990;-57
2023/03/07 05:56:58;;;;;;;9.85;1.75;;;;;;;2.26;73.19;99282.16;7389084;19;20459;-57
2023/03/07 05:59:24;;;;;;;12.77;2.00;;;;;;;2.15;73.43;99285.56;7395375;19;20470;-59
2023/03/07 06:01:49;;;;;;;14.35;1.75;;;;;;;2.25;72.78;99293.59;7397159;19;20399;-57
2023/03/07 06:04:15;;;;;;;9.55;1.65;;;;;;;2.12;73.11;99297.09;7395831;19;20071;-58
2023/03/07 06:06:40;;;;;;;10.95;1.60;;;;;;;2.05;72.84;99290.63;7393625;19;20029;-56
2023/03/07 06:09:06;;;;;;;11.48;1.40;;;;;;;2.10;72.44;99296.34;7397157;19;20019;-57
2023/03/07 06:11:32;;;;;;;9.25;1.52;;;;;;;2.07;72.69;99286.09;7397641;19;20002;-57
2023/03/07 06:13:57;;;;;;;10.57;1.67;;;;;;;2.13;72.54;99288.28;7396978;19;20007;-57
2023/03/07 06:16:23;;;;;;;10.43;1.40;;;;;;;2.18;71.89;99293.19;7395952;19;20340;-57
2023/03/07 06:18:48;;;;;;;8.27;1.45;;;;;;;2.19;71.63;99296.66;7396945;19;20017;-57
2023/03/07 06:21:23;;;;;;;9.57;1.50;;;;;;;2.19;71.43;99294.88;7396702;19;20380;-57
2023/03/07 06:23:49;;;;;;;11.32;1.63;;;;;;;2.27;70.53;99291.69;7395507;19;19999;-58
2023/03/07 06:26:14;;;;;;;6.75;1.38;;;;;;;2.26;70.94;99300.50;7395755;19;20362;-58
2023/03/07 06:28:41;;;;;;;10.80;1.65;;;;;;;2.24;71.14;99277.06;7393431;19;19999;-58
2023/03/07 06:31:12;;;;;;;9.02;1.73;;;;;;;2.30;70.32;99292.31;7395992;19;20007;-58
2023/03/07 06:33:38;;;;;;;12.15;1.80;;;;;;;2.34;70.37;99300.81;7394027;19;20023;-58
2023/03/07 06:36:09;;;;;;;9.55;1.70;;;;;;;2.38;69.98;99291.78;7390783;19;20486;-58
2023/03/07 06:38:35;;;;;;;9.77;1.60;;;;;;;2.38;70.04;99304.88;7392918;19;20416;-57
2023/03/07 06:41:01;;;;;;;9.23;1.40;;;;;;;2.39;69.49;99301.31;7394545;19;19995;-59
2023/03/07 06:43:27;;;;;;;10.40;1.60;;;;;;;2.42;69.38;99308.13;7395166;19;20374;-57
2023/03/07 06:45:52;;;;;;;9.38;1.52;;;;;;;2.38;69.14;99300.47;7394886;19;20022;-57
2023/03/07 06:48:18;;;;;;;7.80;1.52;;;;;;;2.43;69.05;99317.63;7392968;19;20018;-57
2023/03/07 06:50:45;;;;;;;15.70;2.05;;;;;;;2.45;69.57;99321.84;7395172;19;20105;-57
2023/03/07 06:53:11;;;;;;;7.30;1.67;;;;;;;2.51;69.49;99316.16;7395457;19;19999;-57
2023/03/07 06:55:36;;;;;;;10.00;1.67;;;;;;;2.53;69.40;99323.91;7392249;19;20571;-57
2023/03/07 06:58:02;;;;;;;8.52;1.70;;;;;;;2.53;69.26;99314.25;7392943;19;20002;-57
2023/03/07 07:00:28;;;;;;;10.13;1.60;;;;;;;2.44;70.00;99307.06;7395338;19;20330;-58
2023/03/07 07:02:53;;;;;;;9.43;1.50;;;;;;;2.32;70.32;99306.16;7392531;19;20509;-57
2023/03/07 07:05:20;;;;;;;8.82;1.65;;;;;;;2.49;69.57;99306.72;7392942;19;20047;-57
2023/03/07 07:07:45;;;;;;;7.93;1.60;;;;;;;2.51;69.67;99310.09;7392330;19;20058;-56
2023/03/07 07:10:11;;;;;;;8.07;1.50;;;;;;;2.56;69.76;99314.03;7394922;19;20327;-58
2023/03/07 07:12:37;;;;;;;12.35;2.00;;;;;;;2.67;69.21;99315.91;7394460;19;20001;-57
2023/03/07 07:15:04;;;;;;;8.88;1.17;;;;;;;2.79;68.65;99308.91;7391795;19;20003;-57
2023/03/07 07:17:31;;;;;;;12.77;1.73;;;;;;;2.86;68.77;99325.88;7392999;19;20002;-58
2023/03/07 07:19:56;;;;;;;9.77;1.80;;;;;;;2.89;68.96;99328.28;7392271;19;20006;-57
2023/03/07 07:22:22;;;;;;;10.95;1.92;;;;;;;2.88;68.63;99329.22;7394879;19;20327;-56
2023/03/07 07:24:48;;;;;;;6.15;1.40;;;;;;;2.89;68.51;99318.63;7393372;19;20466;-57
2023/03/07 07:27:13;;;;;;;11.45;2.03;;;;;;;2.86;69.01;99336.38;7393175;19;20010;-57
2023/03/07 07:29:39;;;;;;;10.40;1.92;;;;;;;2.94;69.31;99334.03;7393735;19;20011;-56
2023/03/07 07:32:05;;;;;;;9.68;1.60;;;;;;;3.06;68.40;99329.66;7393049;19;19991;-59
2023/03/07 07:34:31;;;;;;;12.27;1.65;;;;;;;3.02;68.87;99341.31;7392385;19;20013;-57
2023/03/07 07:36:56;;;;;;;10.18;1.60;;;;;;;3.02;68.71;99336.91;7390225;19;20058;-58
2023/03/07 07:39:23;;;;;;;7.72;1.40;;;;;;;2.94;69.03;99347.13;7393475;19;20050;-57
2023/03/07 07:41:48;;;;;;;10.88;1.67;;;;;;;2.99;69.13;99341.53;7393424;19;19999;-56
2023/03/07 07:44:14;;;;;;;10.38;1.73;;;;;;;2.97;69.03;99351.34;7393473;19;20065;-57
2023/03/07 07:46:39;;;;;;;16.02;2.00;;;;;;;3.08;68.98;99346.13;7393254;19;20021;-59
2023/03/07 07:49:05;;;;;;;10.93;1.70;;;;;;;3.06;68.83;99351.47;7393306;19;20352;-58
2023/03/07 07:51:30;;;;;;;13.05;2.30;;;;;;;3.19;68.41;99355.81;7393509;19;20328;-57
2023/03/07 07:53:56;;;;;;;9.00;1.70;;;;;;;3.08;68.35;99367.13;7392659;19;19999;-57
2023/03/07 07:56:21;;;;;;;10.68;1.95;;;;;;;2.96;69.51;99378.50;7393149;19;19994;-59
2023/03/07 07:58:47;;;;;;;11.57;1.60;;;;;;;2.79;71.11;99364.00;7390570;19;20040;-57
2023/03/07 08:01:18;;;;;;;10.07;1.73;;;;;;;2.74;71.12;99366.13;7392579;19;19998;-56
2023/03/07 08:03:43;;;;;;;12.35;1.85;;;;;;;2.78;71.30;99371.03;7391223;19;20114;-57
2023/03/07 08:06:09;;;;;;;10.55;1.80;;;;;;;2.84;71.03;99365.31;7392224;19;19995;-57
2023/03/07 08:08:35;;;;;;;8.82;1.63;;;;;;;2.95;69.56;99369.78;7391304;19;19998;-56
2023/03/07 08:11:01;;;;;;;11.73;1.67;;;;;;;2.95;69.56;99369.78;7391423;19;19990;-56
2023/03/07 08:13:27;;;;;;;9.13;1.77;;;;;;;2.99;69.05;99368.63;7392349;19;20006;-56
2023/03/07 08:15:53;;;;;;;9.93;1.98;;;;;;;3.06;69.08;99375.09;7390375;19;20502;-57
2023/03/07 08:18:18;;;;;;;12.15;1.50;;;;;;;3.02;68.30;99371.03;7389923;19;19991;-57
2023/03/07 08:20:43;;;;;;;10.23;2.00;;;;;;;3.14;68.43;99370.13;7391485;19;20009;-57
2023/03/07 08:23:09;;;;;;;10.27;1.67;;;;;;;3.16;68.07;99380.50;7390472;19;19998;-56
2023/03/07 08:25:34;;;;;;;7.53;1.88;;;;;;;2.99;68.31;99376.47;7391454;19;20525;-57
2023/03/07 08:28:02;;;;;;;10.18;1.50;;;;;;;3.03;68.14;99382.34;7389102;19;20462;-56
2023/03/07 08:30:29;;;;;;;7.43;1.42;;;;;;;3.18;67.78;99394.34;7393017;19;20003;-57
2023/03/07 08:32:55;;;;;;;6.28;1.52;;;;;;;3.26;67.14;99392.00;7391792;19;20082;-56
2023/03/07 08:35:22;;;;;;;9.15;1.70;;;;;;;3.31;67.63;99378.56;7390443;19;20027;-56
2023/03/07 08:37:52;;;;;;;12.70;1.92;;;;;;;3.31;67.73;99384.63;7390489;19;20319;-56
2023/03/07 08:40:17;;;;;;;8.57;1.90;;;;;;;3.23;67.55;99394.03;7389126;19;20482;-57
2023/03/07 08:42:43;;;;;;;9.23;1.83;;;;;;;3.06;68.17;99395.25;7392061;19;20062;-57
2023/03/07 08:45:08;;;;;;;10.75;1.48;;;;;;;3.05;68.57;99386.53;7391456;19;20339;-57
2023/03/07 08:47:34;;;;;;;9.48;2.20;;;;;;;3.36;67.85;99397.41;7390021;19;19994;-58
2023/03/07 08:49:59;;;;;;;4.53;1.15;;;;;;;3.50;67.28;99391.16;7391514;19;20009;-57
2023/03/07 08:52:25;;;;;;;13.13;1.52;;;;;;;3.53;66.64;99391.75;7390775;19;20359;-58
2023/03/07 08:54:50;;;;;;;12.63;1.75;;;;;;;3.38;67.17;99406.84;7388853;19;20022;-57
2023/03/07 08:57:16;;;;;;;8.10;1.55;;;;;;;3.13;67.83;99406.97;7389214;19;20429;-57
2023/03/07 08:59:41;;;;;;;9.65;1.60;;;;;;;3.22;68.33;99418.56;7391268;19;20006;-56
2023/03/07 09:02:09;;;;;;;9.27;1.65;;;;;;;3.35;68.10;99408.88;7391353;19;20002;-57
2023/03/07 09:04:35;;;;;;;12.18;2.80;;;;;;;3.40;67.06;99404.09;7389810;19;20003;-56
2023/03/07 09:07:00;;;;;;;14.73;3.88;;;;;;;3.32;68.15;99404.66;7388506;19;20007;-57
2023/03/07 09:09:28;;;;;;;10.88;2.92;;;;;;;3.26;69.11;99405.09;7389347;19;19994;-57
2023/03/07 09:11:53;;;;;;;14.55;2.10;;;;;;;3.22;68.53;99405.44;7389570;19;19994;-57
2023/03/07 09:14:19;;;;;;;8.52;2.15;;;;;;;3.06;68.66;99397.88;7390056;19;20073;-57
2023/03/07 09:16:44;;;;;;;8.65;1.55;;;;;;;3.25;68.58;99397.38;7389606;19;20006;-57
2023/03/07 09:19:10;;;;;;;11.65;1.83;;;;;;;3.21;68.72;99395.91;7389646;19;20020;-56
2023/03/07 09:21:35;;;;;;;8.20;1.80;;;;;;;3.28;68.36;99400.59;7389106;19;19995;-58
2023/03/07 09:24:01;;;;;;;7.22;1.60;;;;;;;3.31;67.60;99400.38;7390643;19;20348;-56
2023/03/07 09:26:26;;;;;;;8.77;1.75;;;;;;;3.29;67.76;99399.63;7389787;19;20005;-57
2023/03/07 09:28:51;;;;;;;9.27;1.60;;;;;;;3.24;68.32;99407.03;7387586;19;19998;-57
2023/03/07 09:31:17;;;;;;;6.70;1.60;;;;;;;3.21;67.94;99409.88;7392258;19;20025;-56
2023/03/07 09:33:43;;;;;;;11.30;1.70;;;;;;;3.27;68.43;99411.22;7397994;19;20002;-57
2023/03/07 09:36:10;;;;;;;10.60;2.05;;;;;;;3.29;67.19;99414.56;7393270;19;20002;-58
2023/03/07 09:38:37;;;;;;;11.35;2.17;;;;;;;3.30;67.11;99432.84;7394976;19;20014;-58
2023/03/07 09:41:17;;;;;;;9.13;2.92;;;;;;;3.43;65.55;99414.38;7397973;19;19991;-57
2023/03/07 09:43:50;;;;;;;13.00;2.63;;;;;;;3.67;65.06;99408.25;7396246;19;20083;-58
2023/03/07 09:46:48;;;;;;;9.70;2.10;;;;;;;3.76;64.56;99410.16;7397145;19;20002;-57
2023/03/07 09:49:28;;;;;;;13.38;1.83;;;;;;;3.69;64.83;99401.94;7397108;19;20083;-57
2023/03/07 09:51:58;;;;;;;7.95;1.58;;;;;;;3.82;64.92;99410.56;7395969;19;19995;-57
2023/03/07 09:54:37;;;;;;;14.30;3.05;;;;;;;3.92;63.83;99415.13;7396555;19;20002;-57
2023/03/07 09:57:05;;;;;;;15.70;2.85;;;;;;;3.86;64.18;99413.78;7395916;19;19994;-58
2023/03/07 09:59:40;;;;;;;13.95;1.77;;;;;;;3.91;64.38;99411.63;7395170;19;20006;-58
2023/03/07 10:02:17;;;;;;;6.00;1.33;;;;;;;3.98;64.42;99420.75;7397022;19;20059;-57
2023/03/07 10:04:52;;;;;;;10.82;2.10;;;;;;;4.03;63.06;99407.28;7396026;19;20514;-57
2023/03/07 10:07:22;;;;;;;11.07;2.80;;;;;;;4.05;63.05;99406.19;7395536;19;19986;-58
2023/03/07 10:09:53;;;;;;;12.20;1.85;;;;;;;3.95;63.49;99421.00;7396481;19;19995;-60
2023/03/07 10:12:43;;;;;;;9.43;1.60;;;;;;;3.95;63.01;99421.00;7395545;19;20070;-58
2023/03/07 10:15:31;;;;;;;7.00;1.40;;;;;;;4.09;62.92;99417.31;7393271;19;20374;-59
2023/03/07 10:17:57;;;;;;;9.65;1.60;;;;;;;4.14;61.77;99412.53;7392921;19;20036;-58
2023/03/07 10:20:31;;;;;;;7.95;1.80;;;;;;;4.17;61.37;99419.34;7396153;19;20003;-58
2023/03/07 10:23:21;;;;;;;9.55;1.80;;;;;;;4.05;61.44;99427.22;7396593;19;20021;-58
2023/03/07 10:25:57;;;;;;;7.45;1.10;;;;;;;4.10;60.60;99425.09;7395150;19;20065;-57
2023/03/07 10:28:30;;;;;;;7.68;1.48;;;;;;;4.05;60.51;99426.41;7393753;19;20002;-57
2023/03/07 10:31:12;;;;;;;10.18;1.38;;;;;;;3.84;60.83;99427.06;7395929;19;19999;-57
2023/03/07 10:33:41;;;;;;;9.50;2.50;;;;;;;3.82;61.10;99423.69;7396361;19;19994;-58
2023/03/07 10:36:21;;;;;;;9.15;1.45;;;;;;;3.91;60.83;99422.16;7390574;19;20565;-57
2023/03/07 10:39:15;;;;;;;13.55;1.83;;;;;;;3.93;61.29;99427.34;7392968;19;20002;-60
2023/03/07 10:41:41;;;;;;;7.32;1.83;;;;;;;4.03;60.96;99428.31;7393976;19;20110;-60
2023/03/07 10:44:16;;;;;;;9.38;1.63;;;;;;;4.06;60.71;99426.25;7394483;19;20443;-59
2023/03/07 10:46:43;;;;;;;7.38;1.30;;;;;;;4.18;61.04;99437.66;7394401;19;20360;-60
2023/03/07 10:49:16;;;;;;;7.93;1.67;;;;;;;3.82;64.07;99428.94;7394787;19;20003;-59
2023/03/07 10:51:45;;;;;;;7.97;1.60;;;;;;;3.90;64.89;99433.63;7392608;19;20038;-60
2023/03/07 10:54:15;;;;;;;9.43;1.52;;;;;;;3.98;65.09;99428.63;7393626;19;20022;-60
2023/03/07 10:57:09;;;;;;;7.70;1.52;;;;;;;3.97;65.70;99420.88;7391724;19;20447;-60
2023/03/07 10:59:37;;;;;;;9.50;1.95;;;;;;;4.10;65.27;99434.75;7394873;19;19999;-60
2023/03/07 11:02:25;;;;;;;6.38;1.20;;;;;;;4.21;64.46;99431.31;7395236;19;20002;-59
2023/03/07 11:04:58;;;;;;;7.50;1.52;;;;;;;4.28;63.61;99427.25;7395020;19;20058;-59
2023/03/07 11:07:30;;;;;;;7.00;1.35;;;;;;;4.37;62.97;99421.28;7393814;19;20007;-59
2023/03/07 11:09:57;;;;;;;9.38;1.58;;;;;;;4.41;63.38;99424.50;7395552;19;20302;-59
2023/03/07 11:12:25;;;;;;;14.35;1.73;;;;;;;4.44;63.18;99432.16;7394383;19;20402;-59
2023/03/07 11:14:52;;;;;;;9.70;1.60;;;;;;;4.49;63.00;99430.84;7393950;19;19998;-58
2023/03/07 11:17:26;;;;;;;10.88;1.38;;;;;;;4.52;63.33;99432.38;7393154;19;20336;-59
2023/03/07 11:19:55;;;;;;;9.23;1.67;;;;;;;4.67;62.75;99427.72;7395610;19;20098;-58
2023/03/07 11:22:32;;;;;;;11.15;2.00;;;;;;;4.83;62.46;99429.03;7394320;19;20451;-58
2023/03/07 11:25:19;;;;;;;9.95;2.13;;;;;;;4.87;61.85;99424.38;7395142;19;20352;-59
2023/03/07 11:27:45;;;;;;;8.88;1.52;;;;;;;4.89;60.55;99442.66;7396719;19;20032;-58
2023/03/07 11:30:17;;;;;;;7.80;2.00;;;;;;;4.79;61.09;99424.97;7397745;19;20002;-59
2023/03/07 11:33:15;;;;;;;7.05;1.52;;;;;;;4.57;61.04;99428.47;7397452;19;20010;-59
2023/03/07 11:36:00;;;;;;;12.85;1.83;;;;;;;4.57;61.53;99425.00;7394335;19;20002;-58
2023/03/07 11:38:39;;;;;;;10.23;1.88;;;;;;;4.58;60.90;99424.88;7394817;19;20017;-58